createdAt,value
2023-04-04T00:00:39.547Z,4.754638672
2023-04-04T00:01:39.712Z,4.754638672
2023-04-04T00:02:40.246Z,4.744567871
2023-04-04T00:03:40.858Z,4.694213867
2023-04-04T00:04:41.228Z,4.674072266
2023-04-04T00:05:41.627Z,4.684143066
2023-04-04T00:06:42.090Z,4.643859863
2023-04-04T00:07:42.575Z,4.623718262
2023-04-04T00:08:43.046Z,4.573364258
2023-04-04T00:09:43.617Z,4.613647461
2023-04-04T00:10:44.025Z,4.623718262
2023-04-04T00:11:44.626Z,4.613647461
2023-04-04T00:12:45.087Z,4.593505859
2023-04-04T00:13:45.586Z,4.623718262
2023-04-04T00:14:46.174Z,4.623718262
2023-04-04T00:15:46.606Z,4.543151855
2023-04-04T00:16:46.986Z,4.502868652
2023-04-04T00:17:47.468Z,4.47265625
2023-04-04T00:18:47.929Z,4.502868652
2023-04-04T00:19:48.404Z,4.502868652
2023-04-04T00:20:48.829Z,4.492797852
2023-04-04T00:21:49.280Z,4.512939453
2023-04-04T00:22:49.709Z,4.502868652
2023-04-04T00:23:50.115Z,4.502868652
2023-04-04T00:24:51.492Z,4.543151855
2023-04-04T00:25:51.929Z,4.512939453
2023-04-04T00:26:52.408Z,4.512939453
2023-04-04T00:27:52.846Z,4.543151855
2023-04-04T00:28:53.318Z,4.563293457
2023-04-04T00:29:53.875Z,4.512939453
2023-04-04T00:30:54.213Z,4.533081055
2023-04-04T00:31:54.653Z,4.502868652
2023-04-04T00:32:55.140Z,4.502868652
2023-04-04T00:33:55.504Z,4.47265625
2023-04-04T00:34:55.928Z,4.47265625
2023-04-04T00:35:56.380Z,4.422302246
2023-04-04T00:36:56.830Z,4.462585449
2023-04-04T00:37:57.311Z,4.432373047
2023-04-04T00:38:57.758Z,4.462585449
2023-04-04T00:39:58.233Z,4.462585449
2023-04-04T00:40:58.621Z,4.47265625
2023-04-04T00:41:59.124Z,4.502868652
2023-04-04T00:42:59.577Z,4.442443848
2023-04-04T00:44:00.149Z,4.432373047
2023-04-04T00:45:00.772Z,4.442443848
2023-04-04T00:46:01.153Z,4.442443848
2023-04-04T00:47:01.580Z,4.432373047
2023-04-04T00:48:02.042Z,4.47265625
2023-04-04T00:49:02.746Z,4.432373047
2023-04-04T00:50:03.289Z,4.422302246
2023-04-04T00:51:03.754Z,4.392089844
2023-04-04T00:52:04.186Z,4.351806641
2023-04-04T00:53:04.715Z,4.351806641
2023-04-04T00:54:05.140Z,4.361877441
2023-04-04T00:55:06.520Z,4.34173584
2023-04-04T00:56:06.950Z,4.34173584
2023-04-04T00:57:07.535Z,4.34173584
2023-04-04T00:58:38.499Z,4.321594238
2023-04-04T00:59:38.955Z,4.281311035
2023-04-04T01:00:39.636Z,4.281311035
2023-04-04T01:01:39.951Z,4.251098633
2023-04-04T01:02:40.431Z,4.21081543
2023-04-04T01:03:40.830Z,4.281311035
2023-04-04T01:04:41.359Z,4.311523438
2023-04-04T01:05:41.897Z,4.291381836
2023-04-04T01:06:42.256Z,4.321594238
2023-04-04T01:07:42.776Z,4.321594238
2023-04-04T01:08:43.219Z,4.281311035
2023-04-04T01:09:43.678Z,4.281311035
2023-04-04T01:10:44.297Z,4.261169434
2023-04-04T01:11:44.756Z,4.261169434
2023-04-04T01:12:45.275Z,4.291381836
2023-04-04T01:13:45.766Z,4.251098633
2023-04-04T01:14:46.218Z,4.21081543
2023-04-04T01:15:46.738Z,4.200744629
2023-04-04T01:16:47.225Z,4.21081543
2023-04-04T01:17:47.883Z,4.200744629
2023-04-04T01:18:48.373Z,4.200744629
2023-04-04T01:19:48.917Z,4.200744629
2023-04-04T01:20:49.389Z,4.170532227
2023-04-04T01:21:49.875Z,4.170532227
2023-04-04T01:22:50.300Z,4.140319824
2023-04-04T01:23:50.756Z,4.170532227
2023-04-04T01:24:51.199Z,4.160461426
2023-04-04T01:25:51.807Z,4.160461426
2023-04-04T01:26:52.220Z,4.180603027
2023-04-04T01:27:52.684Z,4.200744629
2023-04-04T01:28:53.158Z,4.180603027
2023-04-04T01:29:53.644Z,4.180603027
2023-04-04T01:30:54.246Z,4.180603027
2023-04-04T01:31:54.571Z,4.170532227
2023-04-04T01:32:55.158Z,4.130249023
2023-04-04T01:33:55.583Z,4.170532227
2023-04-04T01:34:56.055Z,4.180603027
2023-04-04T01:35:56.558Z,4.160461426
2023-04-04T01:36:56.940Z,4.160461426
2023-04-04T01:37:57.450Z,4.130249023
2023-04-04T01:38:57.905Z,4.039611816
2023-04-04T01:39:58.396Z,3.999328613
2023-04-04T01:40:58.860Z,4.019470215
2023-04-04T01:41:59.302Z,4.019470215
2023-04-04T01:42:59.805Z,3.999328613
2023-04-04T01:44:00.229Z,3.999328613
2023-04-04T01:45:00.701Z,3.979187012
2023-04-04T01:46:02.050Z,3.928833008
2023-04-04T01:47:02.695Z,3.918762207
2023-04-04T01:48:03.214Z,3.898620605
2023-04-04T01:49:03.736Z,3.928833008
2023-04-04T01:50:04.194Z,3.948974609
2023-04-04T01:51:04.698Z,3.979187012
2023-04-04T01:52:05.126Z,3.979187012
2023-04-04T01:53:05.585Z,3.989257813
2023-04-04T01:54:06.044Z,3.95904541
2023-04-04T01:55:06.577Z,3.95904541
2023-04-04T01:56:07.917Z,3.948974609
2023-04-04T01:57:38.658Z,3.918762207
2023-04-04T01:58:39.106Z,3.928833008
2023-04-04T01:59:39.570Z,3.918762207
2023-04-04T02:00:40.302Z,3.878479004
2023-04-04T02:01:40.679Z,3.818054199
2023-04-04T02:02:41.248Z,3.797912598
2023-04-04T02:03:41.750Z,3.737487793
2023-04-04T02:04:42.251Z,3.747558594
2023-04-04T02:05:42.708Z,3.707275391
2023-04-04T02:06:43.269Z,3.717346191
2023-04-04T02:07:43.804Z,3.707275391
2023-04-04T02:08:44.448Z,3.707275391
2023-04-04T02:09:44.925Z,3.707275391
2023-04-04T02:10:45.389Z,3.737487793
2023-04-04T02:11:45.876Z,3.797912598
2023-04-04T02:12:46.374Z,3.838195801
2023-04-04T02:13:46.925Z,3.878479004
2023-04-04T02:14:47.458Z,3.818054199
2023-04-04T02:15:48.505Z,3.777770996
2023-04-04T02:16:49.060Z,3.767700195
2023-04-04T02:17:49.599Z,3.747558594
2023-04-04T02:18:50.072Z,3.737487793
2023-04-04T02:19:50.541Z,3.717346191
2023-04-04T02:20:51.025Z,3.707275391
2023-04-04T02:21:51.574Z,3.737487793
2023-04-04T02:22:52.186Z,3.737487793
2023-04-04T02:23:52.869Z,3.747558594
2023-04-04T02:24:53.364Z,3.747558594
2023-04-04T02:25:53.942Z,3.737487793
2023-04-04T02:26:54.476Z,3.707275391
2023-04-04T02:27:54.891Z,3.717346191
2023-04-04T02:28:55.367Z,3.666992188
2023-04-04T02:29:55.872Z,3.677062988
2023-04-04T02:30:56.389Z,3.596496582
2023-04-04T02:31:56.845Z,3.626708984
2023-04-04T02:32:57.345Z,3.666992188
2023-04-04T02:33:57.780Z,3.626708984
2023-04-04T02:34:58.232Z,3.666992188
2023-04-04T02:35:58.825Z,3.626708984
2023-04-04T02:36:59.382Z,3.616638184
2023-04-04T02:37:59.855Z,3.515930176
2023-04-04T02:39:00.302Z,3.515930176
2023-04-04T02:40:00.738Z,3.536071777
2023-04-04T02:41:01.227Z,3.556213379
2023-04-04T02:42:01.860Z,3.556213379
2023-04-04T02:43:02.640Z,3.556213379
2023-04-04T02:44:03.140Z,3.536071777
2023-04-04T02:45:03.569Z,3.515930176
2023-04-04T02:46:14.406Z,3.485717773
2023-04-04T02:47:04.629Z,3.526000977
2023-04-04T02:48:05.085Z,3.556213379
2023-04-04T02:49:05.505Z,3.56628418
2023-04-04T02:50:05.999Z,3.586425781
2023-04-04T02:51:06.468Z,3.526000977
2023-04-04T02:52:37.476Z,3.495788574
2023-04-04T02:53:38.011Z,3.495788574
2023-04-04T02:54:38.537Z,3.526000977
2023-04-04T02:55:39.077Z,3.556213379
2023-04-04T02:56:40.509Z,3.556213379
2023-04-04T02:57:41.020Z,3.495788574
2023-04-04T02:58:41.678Z,3.495788574
2023-04-04T02:59:42.077Z,3.495788574
2023-04-04T03:00:42.716Z,3.455505371
2023-04-04T03:01:43.019Z,3.485717773
2023-04-04T03:02:43.686Z,3.526000977
2023-04-04T03:03:44.007Z,3.515930176
2023-04-04T03:04:44.454Z,3.495788574
2023-04-04T03:05:44.965Z,3.43536377
2023-04-04T03:06:45.472Z,3.415222168
2023-04-04T03:07:45.960Z,3.374938965
2023-04-04T03:08:46.375Z,3.344726563
2023-04-04T03:09:46.832Z,3.334655762
2023-04-04T03:10:47.305Z,3.31451416
2023-04-04T03:11:47.816Z,3.31451416
2023-04-04T03:12:48.364Z,3.31451416
2023-04-04T03:13:48.786Z,3.304443359
2023-04-04T03:14:49.214Z,3.31451416
2023-04-04T03:15:49.698Z,3.31451416
2023-04-04T03:16:50.194Z,3.31451416
2023-04-04T03:17:50.658Z,3.264160156
2023-04-04T03:18:51.108Z,3.254089355
2023-04-04T03:19:51.532Z,3.203735352
2023-04-04T03:20:51.989Z,3.193664551
2023-04-04T03:21:52.492Z,3.284301758
2023-04-04T03:22:53.052Z,3.334655762
2023-04-04T03:23:53.436Z,3.344726563
2023-04-04T03:24:53.978Z,3.31451416
2023-04-04T03:25:54.396Z,3.354797363
2023-04-04T03:26:54.847Z,3.31451416
2023-04-04T03:27:55.577Z,3.254089355
2023-04-04T03:28:55.889Z,3.254089355
2023-04-04T03:29:56.371Z,3.334655762
2023-04-04T03:30:56.890Z,3.354797363
2023-04-04T03:31:57.386Z,3.354797363
2023-04-04T03:32:57.881Z,3.354797363
2023-04-04T03:33:58.311Z,3.354797363
2023-04-04T03:34:58.778Z,3.385009766
2023-04-04T03:35:59.297Z,3.304443359
2023-04-04T03:36:59.724Z,3.264160156
2023-04-04T03:38:00.356Z,3.284301758
2023-04-04T03:39:00.708Z,3.304443359
2023-04-04T03:40:01.221Z,3.334655762
2023-04-04T03:41:01.696Z,3.334655762
2023-04-04T03:42:02.182Z,3.334655762
2023-04-04T03:43:02.748Z,3.264160156
2023-04-04T03:44:03.158Z,3.193664551
2023-04-04T03:45:03.706Z,3.163452148
2023-04-04T03:46:04.402Z,3.103027344
2023-04-04T03:47:04.798Z,3.05267334
2023-04-04T03:48:05.257Z,2.992248535
2023-04-04T03:49:05.733Z,3.012390137
2023-04-04T03:50:36.792Z,3.022460938
2023-04-04T03:51:37.284Z,2.972106934
2023-04-04T03:52:37.749Z,2.92175293
2023-04-04T03:53:38.273Z,2.941894531
2023-04-04T03:54:38.665Z,2.992248535
2023-04-04T03:55:39.176Z,2.992248535
2023-04-04T03:56:39.716Z,3.022460938
2023-04-04T03:57:40.211Z,3.042602539
2023-04-04T03:58:40.813Z,3.042602539
2023-04-04T03:59:41.211Z,3.05267334
2023-04-04T04:00:42.101Z,3.012390137
2023-04-04T04:01:42.359Z,3.022460938
2023-04-04T04:02:42.948Z,2.982177734
2023-04-04T04:03:43.471Z,2.972106934
2023-04-04T04:04:44.001Z,2.982177734
2023-04-04T04:05:44.368Z,2.891540527
2023-04-04T04:06:44.884Z,2.891540527
2023-04-04T04:07:45.311Z,2.941894531
2023-04-04T04:08:45.890Z,2.901611328
2023-04-04T04:09:46.351Z,2.871398926
2023-04-04T04:10:46.805Z,2.810974121
2023-04-04T04:11:47.276Z,2.831115723
2023-04-04T04:12:47.780Z,2.79083252
2023-04-04T04:13:48.294Z,2.730407715
2023-04-04T04:14:48.821Z,2.710266113
2023-04-04T04:15:49.305Z,2.740478516
2023-04-04T04:16:49.799Z,2.740478516
2023-04-04T04:17:50.316Z,2.710266113
2023-04-04T04:18:50.821Z,2.740478516
2023-04-04T04:19:51.256Z,2.680053711
2023-04-04T04:20:51.773Z,2.730407715
2023-04-04T04:21:52.255Z,2.680053711
2023-04-04T04:22:54.087Z,2.619628906
2023-04-04T04:23:53.163Z,2.629699707
2023-04-04T04:24:53.657Z,2.659912109
2023-04-04T04:25:54.118Z,2.690124512
2023-04-04T04:26:54.605Z,2.619628906
2023-04-04T04:27:55.050Z,2.589416504
2023-04-04T04:28:55.539Z,2.589416504
2023-04-04T04:29:55.961Z,2.609558105
2023-04-04T04:30:56.487Z,2.559204102
2023-04-04T04:31:57.021Z,2.559204102
2023-04-04T04:32:57.477Z,2.559204102
2023-04-04T04:33:57.921Z,2.528991699
2023-04-04T04:34:58.382Z,2.549133301
2023-04-04T04:36:01.062Z,2.549133301
2023-04-04T04:36:59.431Z,2.528991699
2023-04-04T04:37:59.969Z,2.508850098
2023-04-04T04:39:00.480Z,2.508850098
2023-04-04T04:40:00.921Z,2.508850098
2023-04-04T04:41:01.428Z,2.508850098
2023-04-04T04:42:02.001Z,2.508850098
2023-04-04T04:43:02.762Z,2.478637695
2023-04-04T04:44:03.229Z,2.448425293
2023-04-04T04:45:03.764Z,2.428283691
2023-04-04T04:46:04.227Z,2.40814209
2023-04-04T04:47:04.764Z,2.428283691
2023-04-04T04:48:05.698Z,2.40814209
2023-04-04T04:49:36.418Z,2.478637695
2023-04-04T04:50:36.844Z,2.498779297
2023-04-04T04:51:37.285Z,2.508850098
2023-04-04T04:52:37.784Z,2.559204102
2023-04-04T04:53:38.309Z,2.619628906
2023-04-04T04:54:38.809Z,2.619628906
2023-04-04T04:55:39.333Z,2.629699707
2023-04-04T04:56:39.834Z,2.629699707
2023-04-04T04:57:40.310Z,2.589416504
2023-04-04T04:58:40.861Z,2.659912109
2023-04-04T04:59:41.451Z,2.730407715
2023-04-04T05:00:42.225Z,2.740478516
2023-04-04T05:01:42.492Z,2.730407715
2023-04-04T05:02:43.017Z,2.740478516
2023-04-04T05:03:43.352Z,2.730407715
2023-04-04T05:04:43.953Z,2.710266113
2023-04-04T05:05:44.464Z,2.740478516
2023-04-04T05:06:44.977Z,2.760620117
2023-04-04T05:07:45.496Z,2.740478516
2023-04-04T05:08:45.964Z,2.760620117
2023-04-04T05:09:46.491Z,2.810974121
2023-04-04T05:10:46.901Z,2.810974121
2023-04-04T05:11:47.356Z,2.841186523
2023-04-04T05:12:47.820Z,2.871398926
2023-04-04T05:13:48.376Z,2.861328125
2023-04-04T05:14:48.855Z,2.891540527
2023-04-04T05:15:49.395Z,2.871398926
2023-04-04T05:16:49.986Z,2.841186523
2023-04-04T05:17:50.476Z,2.80090332
2023-04-04T05:18:50.941Z,2.841186523
2023-04-04T05:19:51.524Z,2.80090332
2023-04-04T05:20:52.054Z,2.810974121
2023-04-04T05:21:52.563Z,2.831115723
2023-04-04T05:22:53.096Z,2.831115723
2023-04-04T05:23:53.650Z,2.841186523
2023-04-04T05:24:54.229Z,2.871398926
2023-04-04T05:25:54.631Z,2.871398926
2023-04-04T05:26:55.068Z,2.871398926
2023-04-04T05:27:55.565Z,2.891540527
2023-04-04T05:28:56.093Z,2.891540527
2023-04-04T05:29:56.583Z,2.861328125
2023-04-04T05:30:57.550Z,2.79083252
2023-04-04T05:31:57.520Z,2.770690918
2023-04-04T05:32:57.951Z,2.760620117
2023-04-04T05:33:58.433Z,2.690124512
2023-04-04T05:34:59.096Z,2.760620117
2023-04-04T05:35:59.582Z,2.79083252
2023-04-04T05:37:00.042Z,2.770690918
2023-04-04T05:38:00.499Z,2.79083252
2023-04-04T05:39:01.008Z,2.740478516
2023-04-04T05:40:01.631Z,2.730407715
2023-04-04T05:41:02.107Z,2.659912109
2023-04-04T05:42:02.840Z,2.629699707
2023-04-04T05:43:03.350Z,2.589416504
2023-04-04T05:44:03.819Z,2.549133301
2023-04-04T05:45:04.328Z,2.498779297
2023-04-04T05:46:35.502Z,2.438354492
2023-04-04T05:47:35.844Z,2.468566895
2023-04-04T05:48:36.322Z,2.559204102
2023-04-04T05:49:36.812Z,2.619628906
2023-04-04T05:50:37.487Z,2.629699707
2023-04-04T05:51:37.819Z,2.609558105
2023-04-04T05:52:38.307Z,2.609558105
2023-04-04T05:53:38.817Z,2.649841309
2023-04-04T05:54:39.294Z,2.659912109
2023-04-04T05:55:39.870Z,2.629699707
2023-04-04T05:56:40.329Z,2.690124512
2023-04-04T05:57:40.849Z,2.740478516
2023-04-04T05:58:41.322Z,2.770690918
2023-04-04T05:59:41.820Z,2.770690918
2023-04-04T06:00:42.578Z,2.79083252
2023-04-04T06:01:42.813Z,2.810974121
2023-04-04T06:02:43.388Z,2.80090332
2023-04-04T06:03:43.823Z,2.80090332
2023-04-04T06:04:44.253Z,2.810974121
2023-04-04T06:05:45.026Z,2.871398926
2023-04-04T06:06:45.344Z,2.92175293
2023-04-04T06:07:45.865Z,2.951965332
2023-04-04T06:08:53.549Z,3.042602539
2023-04-04T06:09:46.818Z,3.05267334
2023-04-04T06:10:47.406Z,3.103027344
2023-04-04T06:11:47.751Z,3.193664551
2023-04-04T06:12:48.328Z,3.31451416
2023-04-04T06:13:48.913Z,3.405151367
2023-04-04T06:14:49.382Z,3.495788574
2023-04-04T06:15:49.928Z,3.556213379
2023-04-04T06:16:50.285Z,3.636779785
2023-04-04T06:17:50.830Z,3.616638184
2023-04-04T06:18:51.287Z,3.556213379
2023-04-04T06:19:51.828Z,3.485717773
2023-04-04T06:20:52.367Z,3.405151367
2023-04-04T06:21:52.803Z,3.344726563
2023-04-04T06:22:53.269Z,3.284301758
2023-04-04T06:23:53.751Z,3.264160156
2023-04-04T06:24:54.290Z,3.233947754
2023-04-04T06:25:54.821Z,3.264160156
2023-04-04T06:26:55.341Z,3.31451416
2023-04-04T06:27:55.887Z,3.334655762
2023-04-04T06:28:56.379Z,3.334655762
2023-04-04T06:29:56.924Z,3.334655762
2023-04-04T06:30:57.550Z,3.304443359
2023-04-04T06:31:57.935Z,3.264160156
2023-04-04T06:32:58.432Z,3.264160156
2023-04-04T06:33:58.856Z,3.223876953
2023-04-04T06:34:59.352Z,3.223876953
2023-04-04T06:35:59.922Z,3.254089355
2023-04-04T06:37:00.334Z,3.223876953
2023-04-04T06:38:00.837Z,3.284301758
2023-04-04T06:39:01.364Z,3.284301758
2023-04-04T06:40:01.829Z,3.254089355
2023-04-04T06:41:02.612Z,3.254089355
2023-04-04T06:42:03.107Z,3.223876953
2023-04-04T06:43:03.608Z,3.203735352
2023-04-04T06:44:34.580Z,3.173522949
2023-04-04T06:45:35.039Z,3.193664551
2023-04-04T06:46:35.635Z,3.193664551
2023-04-04T06:47:36.053Z,3.193664551
2023-04-04T06:48:37.006Z,3.264160156
2023-04-04T06:49:37.877Z,3.304443359
2023-04-04T06:50:38.692Z,3.31451416
2023-04-04T06:51:38.979Z,3.344726563
2023-04-04T06:52:39.857Z,3.334655762
2023-04-04T06:53:40.160Z,3.334655762
2023-04-04T06:54:40.720Z,3.31451416
2023-04-04T06:55:41.213Z,3.304443359
2023-04-04T06:56:41.755Z,3.31451416
2023-04-04T06:57:42.206Z,3.374938965
2023-04-04T06:58:42.758Z,3.405151367
2023-04-04T06:59:45.166Z,3.405151367
2023-04-04T07:00:43.876Z,3.405151367
2023-04-04T07:01:44.460Z,3.344726563
2023-04-04T07:02:45.027Z,3.385009766
2023-04-04T07:03:45.429Z,3.43536377
2023-04-04T07:04:45.960Z,3.415222168
2023-04-04T07:05:46.541Z,3.415222168
2023-04-04T07:06:47.135Z,3.415222168
2023-04-04T07:07:47.508Z,3.374938965
2023-04-04T07:08:47.998Z,3.385009766
2023-04-04T07:09:48.493Z,3.405151367
2023-04-04T07:10:49.068Z,3.415222168
2023-04-04T07:11:49.640Z,3.455505371
2023-04-04T07:12:50.044Z,3.526000977
2023-04-04T07:13:50.513Z,3.536071777
2023-04-04T07:14:51.016Z,3.586425781
2023-04-04T07:15:51.497Z,3.596496582
2023-04-04T07:16:52.137Z,3.556213379
2023-04-04T07:17:52.562Z,3.56628418
2023-04-04T07:18:53.002Z,3.596496582
2023-04-04T07:19:53.462Z,3.56628418
2023-04-04T07:20:53.990Z,3.586425781
2023-04-04T07:21:54.504Z,3.556213379
2023-04-04T07:22:55.063Z,3.596496582
2023-04-04T07:23:55.583Z,3.666992188
2023-04-04T07:24:56.175Z,3.69720459
2023-04-04T07:25:56.747Z,3.767700195
2023-04-04T07:26:57.412Z,3.797912598
2023-04-04T07:28:09.540Z,3.838195801
2023-04-04T07:28:58.419Z,3.918762207
2023-04-04T07:29:59.027Z,3.95904541
2023-04-04T07:30:59.513Z,3.989257813
2023-04-04T07:32:00.143Z,3.989257813
2023-04-04T07:33:00.592Z,3.999328613
2023-04-04T07:34:01.049Z,3.989257813
2023-04-04T07:35:01.662Z,3.989257813
2023-04-04T07:36:02.188Z,3.999328613
2023-04-04T07:37:02.815Z,3.888549805
2023-04-04T07:38:33.927Z,3.888549805
2023-04-04T07:39:34.409Z,3.878479004
2023-04-04T07:40:34.918Z,3.838195801
2023-04-04T07:41:35.377Z,3.818054199
2023-04-04T07:42:35.925Z,3.807983398
2023-04-04T07:43:36.471Z,3.797912598
2023-04-04T07:44:37.026Z,3.807983398
2023-04-04T07:45:37.499Z,3.797912598
2023-04-04T07:46:38.037Z,3.818054199
2023-04-04T07:47:38.622Z,3.898620605
2023-04-04T07:48:39.078Z,3.878479004
2023-04-04T07:49:39.576Z,3.898620605
2023-04-04T07:50:40.245Z,3.898620605
2023-04-04T07:51:40.627Z,3.888549805
2023-04-04T07:52:41.166Z,3.878479004
2023-04-04T07:53:41.674Z,3.888549805
2023-04-04T07:54:42.256Z,3.898620605
2023-04-04T07:55:42.802Z,3.888549805
2023-04-04T07:56:43.348Z,3.858337402
2023-04-04T07:57:43.869Z,3.898620605
2023-04-04T07:58:44.374Z,3.95904541
2023-04-04T07:59:45.007Z,3.999328613
2023-04-04T08:00:45.586Z,3.979187012
2023-04-04T08:01:46.356Z,3.95904541
2023-04-04T08:02:46.695Z,3.948974609
2023-04-04T08:03:47.455Z,3.948974609
2023-04-04T08:04:47.793Z,3.928833008
2023-04-04T08:05:48.322Z,3.928833008
2023-04-04T08:06:48.836Z,3.928833008
2023-04-04T08:07:49.424Z,3.95904541
2023-04-04T08:08:49.838Z,3.95904541
2023-04-04T08:09:50.305Z,3.95904541
2023-04-04T08:10:50.845Z,3.918762207
2023-04-04T08:11:51.408Z,3.918762207
2023-04-04T08:12:51.944Z,3.898620605
2023-04-04T08:13:52.736Z,3.918762207
2023-04-04T08:14:53.194Z,3.948974609
2023-04-04T08:15:53.849Z,3.989257813
2023-04-04T08:16:54.338Z,4.019470215
2023-04-04T08:17:54.892Z,4.059753418
2023-04-04T08:18:55.263Z,4.100036621
2023-04-04T08:19:55.732Z,4.110107422
2023-04-04T08:20:56.235Z,4.130249023
2023-04-04T08:21:56.869Z,4.130249023
2023-04-04T08:22:57.596Z,4.130249023
2023-04-04T08:23:57.921Z,4.140319824
2023-04-04T08:24:58.424Z,4.170532227
2023-04-04T08:25:58.853Z,4.21081543
2023-04-04T08:27:05.066Z,4.21081543
2023-04-04T08:28:00.021Z,4.251098633
2023-04-04T08:29:00.458Z,4.281311035
2023-04-04T08:30:00.928Z,4.321594238
2023-04-04T08:31:01.436Z,4.351806641
2023-04-04T08:32:02.123Z,4.351806641
2023-04-04T08:33:44.557Z,4.351806641
2023-04-04T08:34:34.006Z,4.34173584
2023-04-04T08:35:34.572Z,4.382019043
2023-04-04T08:36:34.952Z,4.382019043
2023-04-04T08:37:35.420Z,4.392089844
2023-04-04T08:38:35.982Z,4.462585449
2023-04-04T08:39:36.459Z,4.47265625
2023-04-04T08:40:37.180Z,4.492797852
2023-04-04T08:41:37.485Z,4.492797852
2023-04-04T08:42:37.989Z,4.512939453
2023-04-04T08:43:38.473Z,4.512939453
2023-04-04T08:44:38.958Z,4.512939453
2023-04-04T08:45:39.445Z,4.502868652
2023-04-04T08:46:39.977Z,4.512939453
2023-04-04T08:47:40.400Z,4.512939453
2023-04-04T08:48:40.858Z,4.502868652
2023-04-04T08:49:41.352Z,4.512939453
2023-04-04T08:50:42.058Z,4.543151855
2023-04-04T08:51:44.675Z,4.573364258
2023-04-04T08:52:43.317Z,4.573364258
2023-04-04T08:53:43.789Z,4.593505859
2023-04-04T08:54:44.180Z,4.613647461
2023-04-04T08:55:44.768Z,4.684143066
2023-04-04T08:56:45.286Z,4.694213867
2023-04-04T08:57:45.806Z,4.72442627
2023-04-04T08:58:46.401Z,4.774780273
2023-04-04T08:59:46.866Z,4.774780273
2023-04-04T09:00:47.278Z,4.794921875
2023-04-04T09:01:47.766Z,4.774780273
2023-04-04T09:02:48.319Z,4.825134277
2023-04-04T09:03:49.063Z,4.875488281
2023-04-04T09:05:02.593Z,4.905700684
2023-04-04T09:05:49.849Z,4.925842285
2023-04-04T09:06:50.387Z,4.925842285
2023-04-04T09:07:50.848Z,4.925842285
2023-04-04T09:08:51.599Z,4.935913086
2023-04-04T09:09:51.948Z,4.935913086
2023-04-04T09:10:52.472Z,4.905700684
2023-04-04T09:11:52.884Z,4.875488281
2023-04-04T09:12:57.257Z,4.875488281
2023-04-04T09:13:54.002Z,4.86541748
2023-04-04T09:14:54.449Z,4.905700684
2023-04-04T09:15:54.948Z,4.905700684
2023-04-04T09:16:55.520Z,4.925842285
2023-04-04T09:17:55.974Z,4.956054688
2023-04-04T09:18:56.497Z,4.956054688
2023-04-04T09:19:56.989Z,4.966125488
2023-04-04T09:20:57.451Z,4.98626709
2023-04-04T09:21:58.265Z,4.966125488
2023-04-04T09:22:58.728Z,5.016479492
2023-04-04T09:23:59.297Z,5.016479492
2023-04-04T09:24:59.765Z,5.006408691
2023-04-04T09:26:04.501Z,4.98626709
2023-04-04T09:27:01.050Z,5.016479492
2023-04-04T09:28:01.589Z,5.036621094
2023-04-04T09:29:32.864Z,5.046691895
2023-04-04T09:30:33.357Z,5.076904297
2023-04-04T09:31:33.885Z,5.086975098
2023-04-04T09:32:34.383Z,5.1171875
2023-04-04T09:33:34.835Z,5.137329102
2023-04-04T09:34:35.327Z,5.1171875
2023-04-04T09:35:35.917Z,5.167541504
2023-04-04T09:36:36.392Z,5.187683105
2023-04-04T09:37:36.868Z,5.187683105
2023-04-04T09:38:37.362Z,5.197753906
2023-04-04T09:39:37.881Z,5.217895508
2023-04-04T09:40:38.654Z,5.238037109
2023-04-04T09:41:38.789Z,5.238037109
2023-04-04T09:42:39.232Z,5.288391113
2023-04-04T09:43:39.749Z,5.328674316
2023-04-04T09:44:40.308Z,5.318603516
2023-04-04T09:45:40.778Z,5.328674316
2023-04-04T09:46:41.331Z,5.348815918
2023-04-04T09:47:41.736Z,5.37902832
2023-04-04T09:48:42.324Z,5.37902832
2023-04-04T09:49:42.966Z,5.399169922
2023-04-04T09:50:43.354Z,5.419311523
2023-04-04T09:51:43.838Z,5.449523926
2023-04-04T09:52:44.443Z,5.469665527
2023-04-04T09:53:44.946Z,5.489807129
2023-04-04T09:54:48.352Z,5.479736328
2023-04-04T09:55:45.834Z,5.50994873
2023-04-04T09:56:46.687Z,5.560302734
2023-04-04T09:57:47.302Z,5.600585938
2023-04-04T09:59:02.720Z,5.63079834
2023-04-04T09:59:48.365Z,5.650939941
2023-04-04T10:00:48.777Z,5.650939941
2023-04-04T10:01:49.379Z,5.691223145
2023-04-04T10:02:49.860Z,5.671081543
2023-04-04T10:03:50.469Z,5.661010742
2023-04-04T10:04:56.536Z,5.691223145
2023-04-04T10:05:51.377Z,5.731506348
2023-04-04T10:06:51.856Z,5.741577148
2023-04-04T10:07:52.366Z,5.751647949
2023-04-04T10:08:52.981Z,5.771789551
2023-04-04T10:09:53.417Z,5.832214355
2023-04-04T10:11:06.596Z,5.842285156
2023-04-04T10:11:54.321Z,5.852355957
2023-04-04T10:12:54.792Z,5.872497559
2023-04-04T10:13:55.310Z,5.872497559
2023-04-04T10:14:55.840Z,5.872497559
2023-04-04T10:15:56.308Z,5.852355957
2023-04-04T10:16:56.792Z,5.872497559
2023-04-04T10:17:57.454Z,5.902709961
2023-04-04T10:18:57.952Z,5.953063965
2023-04-04T10:19:58.530Z,6.02355957
2023-04-04T10:21:12.024Z,6.104125977
2023-04-04T10:21:59.337Z,6.164550781
2023-04-04T10:22:59.794Z,6.204833984
2023-04-04T10:24:00.320Z,6.214904785
2023-04-04T10:25:00.827Z,6.265258789
2023-04-04T10:26:31.853Z,6.27532959
2023-04-04T10:27:32.529Z,6.295471191
2023-04-04T10:28:33.025Z,6.315612793
2023-04-04T10:29:33.502Z,6.325683594
2023-04-04T10:30:34.103Z,6.325683594
2023-04-04T10:31:34.647Z,6.355895996
2023-04-04T10:32:35.148Z,6.376037598
2023-04-04T10:33:35.533Z,6.416320801
2023-04-04T10:34:36.035Z,6.426391602
2023-04-04T10:35:36.600Z,6.426391602
2023-04-04T10:36:37.076Z,6.456604004
2023-04-04T10:37:37.707Z,6.456604004
2023-04-04T10:38:37.984Z,6.476745605
2023-04-04T10:39:38.557Z,6.476745605
2023-04-04T10:40:39.676Z,6.496887207
2023-04-04T10:41:39.703Z,6.53717041
2023-04-04T10:42:40.280Z,6.547241211
2023-04-04T10:43:40.751Z,6.577453613
2023-04-04T10:44:41.211Z,6.577453613
2023-04-04T10:45:41.916Z,6.577453613
2023-04-04T10:46:42.262Z,6.607666016
2023-04-04T10:47:42.739Z,6.607666016
2023-04-04T10:48:43.200Z,6.627807617
2023-04-04T10:49:43.630Z,6.647949219
2023-04-04T10:50:44.366Z,6.678161621
2023-04-04T10:51:54.842Z,6.708374023
2023-04-04T10:52:45.383Z,6.708374023
2023-04-04T10:53:45.965Z,6.688232422
2023-04-04T10:54:46.491Z,6.688232422
2023-04-04T10:55:46.990Z,6.708374023
2023-04-04T10:56:47.428Z,6.728515625
2023-04-04T10:57:47.939Z,6.728515625
2023-04-04T10:58:48.419Z,6.748657227
2023-04-04T10:59:48.907Z,6.748657227
2023-04-04T11:00:49.506Z,6.748657227